sensor_id;sensor_type;location;lat;lon;timestamp;P1;P2;P0
69349;PMS5003;64554;43.452;4.934;2023-04-06T00:00:01;6.00;6.00;4.00
69349;PMS5003;64554;43.452;4.934;2023-04-06T00:02:28;9.00;7.60;5.00
69349;PMS5003;64554;43.452;4.934;2023-04-06T00:04:55;9.00;9.00;6.00
69349;PMS5003;64554;43.452;4.934;2023-04-06T00:07:28;8.00;8.00;6.00
69349;PMS5003;64554;43.452;4.934;2023-04-06T00:09:55;8.00;7.00;4.40
69349;PMS5003;64554;43.452;4.934;2023-04-06T00:12:22;5.80;5.80;3.80
69349;PMS5003;64554;43.452;4.934;2023-04-06T00:14:49;7.00;7.00;5.00
69349;PMS5003;64554;43.452;4.934;2023-04-06T00:17:15;7.40;7.40;4.00
69349;PMS5003;64554;43.452;4.934;2023-04-06T00:19:42;8.50;7.75;5.00
69349;PMS5003;64554;43.452;4.934;2023-04-06T00:22:08;8.00;8.00;4.00
69349;PMS5003;64554;43.452;4.934;2023-04-06T00:24:35;7.75;7.75;5.75
69349;PMS5003;64554;43.452;4.934;2023-04-06T00:27:01;9.00;8.00;6.00
69349;PMS5003;64554;43.452;4.934;2023-04-06T00:29:28;8.00;8.00;6.00
69349;PMS5003;64554;43.452;4.934;2023-04-06T00:31:55;9.50;9.50;5.50
69349;PMS5003;64554;43.452;4.934;2023-04-06T00:34:21;8.80;7.80;5.00
69349;PMS5003;64554;43.452;4.934;2023-04-06T00:36:48;11.00;8.00;7.00
69349;PMS5003;64554;43.452;4.934;2023-04-06T00:39:14;10.50;9.75;6.00
69349;PMS5003;64554;43.452;4.934;2023-04-06T00:41:53;8.20;8.20;6.00
69349;PMS5003;64554;43.452;4.934;2023-04-06T00:44:21;8.50;8.50;6.50
69349;PMS5003;64554;43.452;4.934;2023-04-06T00:46:48;8.60;8.60;7.00
69349;PMS5003;64554;43.452;4.934;2023-04-06T00:49:14;10.50;8.00;5.00
69349;PMS5003;64554;43.452;4.934;2023-04-06T00:51:44;10.80;10.00;6.00
69349;PMS5003;64554;43.452;4.934;2023-04-06T00:54:12;13.20;13.20;5.20
69349;PMS5003;64554;43.452;4.934;2023-04-06T00:56:39;8.00;7.60;5.60
69349;PMS5003;64554;43.452;4.934;2023-04-06T00:59:08;9.00;9.00;7.00
69349;PMS5003;64554;43.452;4.934;2023-04-06T01:01:35;9.00;9.00;7.00
69349;PMS5003;64554;43.452;4.934;2023-04-06T01:04:02;10.50;9.00;7.00
69349;PMS5003;64554;43.452;4.934;2023-04-06T01:06:38;9.60;9.60;7.00
69349;PMS5003;64554;43.452;4.934;2023-04-06T01:09:04;8.00;8.00;5.80
69349;PMS5003;64554;43.452;4.934;2023-04-06T01:11:35;12.00;12.00;6.60
69349;PMS5003;64554;43.452;4.934;2023-04-06T01:14:02;9.50;9.25;6.25
69349;PMS5003;64554;43.452;4.934;2023-04-06T01:16:29;12.75;10.75;7.75
69349;PMS5003;64554;43.452;4.934;2023-04-06T01:19:01;8.40;8.40;6.00
69349;PMS5003;64554;43.452;4.934;2023-04-06T01:21:34;11.00;10.50;7.00
69349;PMS5003;64554;43.452;4.934;2023-04-06T01:24:00;13.75;12.50;8.00
69349;PMS5003;64554;43.452;4.934;2023-04-06T01:26:27;10.50;8.00;6.00
69349;PMS5003;64554;43.452;4.934;2023-04-06T01:29:01;11.60;10.20;7.60
69349;PMS5003;64554;43.452;4.934;2023-04-06T01:31:27;12.00;12.00;8.00
69349;PMS5003;64554;43.452;4.934;2023-04-06T01:33:54;9.60;9.60;7.00
69349;PMS5003;64554;43.452;4.934;2023-04-06T01:36:38;9.00;9.00;6.00
69349;PMS5003;64554;43.452;4.934;2023-04-06T01:39:04;10.20;10.00;6.20
69349;PMS5003;64554;43.452;4.934;2023-04-06T01:41:31;13.50;13.00;7.50
69349;PMS5003;64554;43.452;4.934;2023-04-06T01:43:58;11.00;11.00;8.00
69349;PMS5003;64554;43.452;4.934;2023-04-06T01:46:30;12.00;10.00;7.00
69349;PMS5003;64554;43.452;4.934;2023-04-06T01:48:58;11.00;10.00;8.00
69349;PMS5003;64554;43.452;4.934;2023-04-06T01:51:24;10.00;9.00;7.00
69349;PMS5003;64554;43.452;4.934;2023-04-06T01:53:51;17.25;15.00;7.00
69349;PMS5003;64554;43.452;4.934;2023-04-06T01:56:18;9.00;9.00;6.00
69349;PMS5003;64554;43.452;4.934;2023-04-06T01:58:45;10.00;7.50;5.50
69349;PMS5003;64554;43.452;4.934;2023-04-06T02:01:12;7.00;7.00;4.00
69349;PMS5003;64554;43.452;4.934;2023-04-06T02:03:39;10.00;10.00;7.00
69349;PMS5003;64554;43.452;4.934;2023-04-06T02:06:06;10.00;9.00;7.00
69349;PMS5003;64554;43.452;4.934;2023-04-06T02:08:33;10.00;10.00;6.25
69349;PMS5003;64554;43.452;4.934;2023-04-06T02:11:06;10.00;9.00;7.50
69349;PMS5003;64554;43.452;4.934;2023-04-06T02:13:32;8.60;7.60;6.00
69349;PMS5003;64554;43.452;4.934;2023-04-06T02:16:02;11.00;11.00;7.00
69349;PMS5003;64554;43.452;4.934;2023-04-06T02:18:32;12.00;10.00;6.00
69349;PMS5003;64554;43.452;4.934;2023-04-06T02:20:58;10.00;10.00;7.00
69349;PMS5003;64554;43.452;4.934;2023-04-06T02:23:25;13.40;11.00;6.60
69349;PMS5003;64554;43.452;4.934;2023-04-06T02:25:52;10.00;9.00;6.00
69349;PMS5003;64554;43.452;4.934;2023-04-06T02:28:18;11.00;11.00;8.00
69349;PMS5003;64554;43.452;4.934;2023-04-06T02:30:45;11.50;11.50;9.00
69349;PMS5003;64554;43.452;4.934;2023-04-06T02:33:12;7.25;7.25;5.25
69349;PMS5003;64554;43.452;4.934;2023-04-06T02:35:51;9.80;9.80;7.00
69349;PMS5003;64554;43.452;4.934;2023-04-06T02:38:18;15.40;14.40;12.40
69349;PMS5003;64554;43.452;4.934;2023-04-06T02:41:01;13.40;13.40;7.20
69349;PMS5003;64554;43.452;4.934;2023-04-06T02:43:28;12.00;12.00;8.00
69349;PMS5003;64554;43.452;4.934;2023-04-06T02:45:56;11.00;11.00;6.25
69349;PMS5003;64554;43.452;4.934;2023-04-06T02:48:23;12.00;12.00;7.00
69349;PMS5003;64554;43.452;4.934;2023-04-06T02:50:49;13.00;11.00;7.00
69349;PMS5003;64554;43.452;4.934;2023-04-06T02:53:16;12.00;12.00;8.00
69349;PMS5003;64554;43.452;4.934;2023-04-06T02:55:55;14.00;14.00;7.25
69349;PMS5003;64554;43.452;4.934;2023-04-06T02:58:22;17.80;13.00;8.00
69349;PMS5003;64554;43.452;4.934;2023-04-06T03:00:52;12.75;11.00;9.00
69349;PMS5003;64554;43.452;4.934;2023-04-06T03:03:19;16.20;16.20;8.00
69349;PMS5003;64554;43.452;4.934;2023-04-06T03:05:46;15.00;15.00;8.00
69349;PMS5003;64554;43.452;4.934;2023-04-06T03:08:13;10.40;9.00;5.00
69349;PMS5003;64554;43.452;4.934;2023-04-06T03:10:40;14.50;11.00;8.00
69349;PMS5003;64554;43.452;4.934;2023-04-06T03:13:06;11.60;10.60;8.00
69349;PMS5003;64554;43.452;4.934;2023-04-06T03:15:33;15.00;15.00;8.80
69349;PMS5003;64554;43.452;4.934;2023-04-06T03:18:00;12.40;12.40;8.00
69349;PMS5003;64554;43.452;4.934;2023-04-06T03:20:26;14.50;13.50;9.00
69349;PMS5003;64554;43.452;4.934;2023-04-06T03:22:53;15.00;12.75;6.75
69349;PMS5003;64554;43.452;4.934;2023-04-06T03:25:19;12.50;12.50;8.00
69349;PMS5003;64554;43.452;4.934;2023-04-06T03:27:46;15.00;11.40;8.00
69349;PMS5003;64554;43.452;4.934;2023-04-06T03:30:12;11.60;11.40;7.00
69349;PMS5003;64554;43.452;4.934;2023-04-06T03:32:39;10.00;10.00;8.20
69349;PMS5003;64554;43.452;4.934;2023-04-06T03:35:06;13.75;13.75;8.00
69349;PMS5003;64554;43.452;4.934;2023-04-06T03:37:33;11.00;9.00;6.60
69349;PMS5003;64554;43.452;4.934;2023-04-06T03:39:59;12.60;12.60;10.60
69349;PMS5003;64554;43.452;4.934;2023-04-06T03:42:26;11.40;10.00;8.00
69349;PMS5003;64554;43.452;4.934;2023-04-06T03:44:53;16.00;14.00;8.00
69349;PMS5003;64554;43.452;4.934;2023-04-06T03:47:20;14.00;12.40;8.40
69349;PMS5003;64554;43.452;4.934;2023-04-06T03:49:46;12.67;12.67;8.00
69349;PMS5003;64554;43.452;4.934;2023-04-06T03:52:13;14.40;12.40;7.40
69349;PMS5003;64554;43.452;4.934;2023-04-06T03:54:39;12.00;10.00;7.60
69349;PMS5003;64554;43.452;4.934;2023-04-06T03:57:06;17.40;13.40;9.00
69349;PMS5003;64554;43.452;4.934;2023-04-06T03:59:33;14.33;11.67;8.00
69349;PMS5003;64554;43.452;4.934;2023-04-06T04:01:59;13.60;13.60;9.20
69349;PMS5003;64554;43.452;4.934;2023-04-06T04:04:26;13.40;13.40;10.40
69349;PMS5003;64554;43.452;4.934;2023-04-06T04:06:53;16.00;14.00;9.00
69349;PMS5003;64554;43.452;4.934;2023-04-06T04:09:19;14.25;14.00;9.00
69349;PMS5003;64554;43.452;4.934;2023-04-06T04:11:46;17.25;15.25;10.00
69349;PMS5003;64554;43.452;4.934;2023-04-06T04:14:12;14.00;13.00;8.40
69349;PMS5003;64554;43.452;4.934;2023-04-06T04:16:39;20.00;19.00;10.00
69349;PMS5003;64554;43.452;4.934;2023-04-06T04:19:07;13.40;13.40;10.40
69349;PMS5003;64554;43.452;4.934;2023-04-06T04:21:41;13.00;13.00;10.00
69349;PMS5003;64554;43.452;4.934;2023-04-06T04:24:08;17.00;17.00;10.20
69349;PMS5003;64554;43.452;4.934;2023-04-06T04:26:34;25.60;22.40;14.00
69349;PMS5003;64554;43.452;4.934;2023-04-06T04:29:01;59.25;49.00;28.00
69349;PMS5003;64554;43.452;4.934;2023-04-06T04:31:28;60.00;47.00;27.40
69349;PMS5003;64554;43.452;4.934;2023-04-06T04:33:55;47.20;40.00;24.00
69349;PMS5003;64554;43.452;4.934;2023-04-06T04:36:21;15.60;14.40;10.40
69349;PMS5003;64554;43.452;4.934;2023-04-06T04:38:49;14.00;13.00;9.00
69349;PMS5003;64554;43.452;4.934;2023-04-06T04:41:16;15.00;12.00;9.00
69349;PMS5003;64554;43.452;4.934;2023-04-06T04:43:42;21.20;19.80;10.40
69349;PMS5003;64554;43.452;4.934;2023-04-06T04:46:09;23.00;20.25;10.00
69349;PMS5003;64554;43.452;4.934;2023-04-06T04:48:36;25.50;24.50;16.00
69349;PMS5003;64554;43.452;4.934;2023-04-06T04:51:03;60.00;49.50;31.00
69349;PMS5003;64554;43.452;4.934;2023-04-06T04:53:30;37.25;34.00;20.25
69349;PMS5003;64554;43.452;4.934;2023-04-06T04:55:57;23.00;21.00;15.00
69349;PMS5003;64554;43.452;4.934;2023-04-06T04:58:23;27.00;25.60;13.00
69349;PMS5003;64554;43.452;4.934;2023-04-06T05:00:50;22.75;17.25;10.75
69349;PMS5003;64554;43.452;4.934;2023-04-06T05:03:21;22.60;22.60;12.40
69349;PMS5003;64554;43.452;4.934;2023-04-06T05:05:48;20.00;20.00;13.00
69349;PMS5003;64554;43.452;4.934;2023-04-06T05:08:15;32.00;28.80;15.60
69349;PMS5003;64554;43.452;4.934;2023-04-06T05:10:42;16.00;16.00;11.00
69349;PMS5003;64554;43.452;4.934;2023-04-06T05:13:09;41.80;36.00;24.00
69349;PMS5003;64554;43.452;4.934;2023-04-06T05:15:35;27.40;21.00;12.60
69349;PMS5003;64554;43.452;4.934;2023-04-06T05:18:04;16.80;15.20;10.00
69349;PMS5003;64554;43.452;4.934;2023-04-06T05:20:32;20.00;17.00;11.00
69349;PMS5003;64554;43.452;4.934;2023-04-06T05:22:59;20.80;19.00;10.00
69349;PMS5003;64554;43.452;4.934;2023-04-06T05:25:25;16.20;15.80;10.00
69349;PMS5003;64554;43.452;4.934;2023-04-06T05:27:52;17.75;16.75;11.25
69349;PMS5003;64554;43.452;4.934;2023-04-06T05:30:19;14.40;14.40;10.00
69349;PMS5003;64554;43.452;4.934;2023-04-06T05:32:46;18.00;17.00;11.75
69349;PMS5003;64554;43.452;4.934;2023-04-06T05:35:13;19.00;19.00;10.00
69349;PMS5003;64554;43.452;4.934;2023-04-06T05:37:40;14.00;14.00;8.60
69349;PMS5003;64554;43.452;4.934;2023-04-06T05:40:07;15.00;14.00;9.60
69349;PMS5003;64554;43.452;4.934;2023-04-06T05:42:41;16.60;16.60;10.60
69349;PMS5003;64554;43.452;4.934;2023-04-06T05:45:09;20.00;17.75;10.00
69349;PMS5003;64554;43.452;4.934;2023-04-06T05:47:37;17.00;16.50;12.00
69349;PMS5003;64554;43.452;4.934;2023-04-06T05:50:03;21.50;18.50;13.50
69349;PMS5003;64554;43.452;4.934;2023-04-06T05:52:30;17.00;17.00;12.25
69349;PMS5003;64554;43.452;4.934;2023-04-06T05:54:57;16.33;16.33;11.33
69349;PMS5003;64554;43.452;4.934;2023-04-06T05:57:23;17.00;17.00;12.50
69349;PMS5003;64554;43.452;4.934;2023-04-06T05:59:50;18.50;18.50;12.25
69349;PMS5003;64554;43.452;4.934;2023-04-06T06:02:17;21.00;16.25;12.00
69349;PMS5003;64554;43.452;4.934;2023-04-06T06:04:44;18.00;18.00;12.00
69349;PMS5003;64554;43.452;4.934;2023-04-06T06:07:11;18.00;17.00;12.00
69349;PMS5003;64554;43.452;4.934;2023-04-06T06:09:37;17.00;15.00;10.00
69349;PMS5003;64554;43.452;4.934;2023-04-06T06:12:06;14.50;13.25;9.50
69349;PMS5003;64554;43.452;4.934;2023-04-06T06:14:34;17.00;16.00;11.00
69349;PMS5003;64554;43.452;4.934;2023-04-06T06:17:01;21.75;20.75;12.00
69349;PMS5003;64554;43.452;4.934;2023-04-06T06:19:28;18.00;16.60;11.60
69349;PMS5003;64554;43.452;4.934;2023-04-06T06:21:55;16.40;16.40;11.00
69349;PMS5003;64554;43.452;4.934;2023-04-06T06:24:21;18.75;17.75;11.75
69349;PMS5003;64554;43.452;4.934;2023-04-06T06:26:48;19.75;17.75;14.25
69349;PMS5003;64554;43.452;4.934;2023-04-06T06:29:15;17.50;17.00;11.50
69349;PMS5003;64554;43.452;4.934;2023-04-06T06:31:42;23.00;22.00;15.00
69349;PMS5003;64554;43.452;4.934;2023-04-06T06:34:08;22.75;22.75;12.75
69349;PMS5003;64554;43.452;4.934;2023-04-06T06:36:36;22.25;20.25;11.50
69349;PMS5003;64554;43.452;4.934;2023-04-06T06:39:03;20.50;18.50;11.75
69349;PMS5003;64554;43.452;4.934;2023-04-06T06:41:30;20.00;17.50;12.00
69349;PMS5003;64554;43.452;4.934;2023-04-06T06:43:56;18.60;17.60;12.60
69349;PMS5003;64554;43.452;4.934;2023-04-06T06:46:23;19.00;19.00;11.75
69349;PMS5003;64554;43.452;4.934;2023-04-06T06:48:50;15.00;15.00;10.60
69349;PMS5003;64554;43.452;4.934;2023-04-06T06:51:16;17.00;14.75;11.00
69349;PMS5003;64554;43.452;4.934;2023-04-06T06:53:43;20.00;20.00;11.75
69349;PMS5003;64554;43.452;4.934;2023-04-06T06:56:09;18.00;16.60;10.60
69349;PMS5003;64554;43.452;4.934;2023-04-06T06:58:36;13.25;13.25;8.25
69349;PMS5003;64554;43.452;4.934;2023-04-06T07:01:03;13.80;13.80;9.60
69349;PMS5003;64554;43.452;4.934;2023-04-06T07:03:31;21.00;20.00;10.00
69349;PMS5003;64554;43.452;4.934;2023-04-06T07:05:58;10.40;10.20;7.00
69349;PMS5003;64554;43.452;4.934;2023-04-06T07:08:28;16.00;14.40;8.80
69349;PMS5003;64554;43.452;4.934;2023-04-06T07:10:54;11.50;11.50;8.00
69349;PMS5003;64554;43.452;4.934;2023-04-06T07:13:24;11.00;11.00;8.00
69349;PMS5003;64554;43.452;4.934;2023-04-06T07:15:53;10.00;10.00;7.00
69349;PMS5003;64554;43.452;4.934;2023-04-06T07:18:20;12.80;12.00;8.60
69349;PMS5003;64554;43.452;4.934;2023-04-06T07:20:47;13.20;13.00;8.00
69349;PMS5003;64554;43.452;4.934;2023-04-06T07:23:14;12.20;10.20;7.80
69349;PMS5003;64554;43.452;4.934;2023-04-06T07:25:41;10.60;9.00;7.00
69349;PMS5003;64554;43.452;4.934;2023-04-06T07:28:10;9.00;9.00;6.00
69349;PMS5003;64554;43.452;4.934;2023-04-06T07:30:37;9.75;8.00;6.00
69349;PMS5003;64554;43.452;4.934;2023-04-06T07:33:04;35.40;33.20;24.40
69349;PMS5003;64554;43.452;4.934;2023-04-06T07:35:32;49.25;39.50;23.00
69349;PMS5003;64554;43.452;4.934;2023-04-06T07:37:58;14.00;14.00;6.75
69349;PMS5003;64554;43.452;4.934;2023-04-06T07:40:25;15.80;15.80;11.80
69349;PMS5003;64554;43.452;4.934;2023-04-06T07:42:54;9.00;9.00;6.00
69349;PMS5003;64554;43.452;4.934;2023-04-06T07:45:23;15.20;15.20;11.00
69349;PMS5003;64554;43.452;4.934;2023-04-06T07:47:49;18.00;18.00;12.00
69349;PMS5003;64554;43.452;4.934;2023-04-06T07:50:16;14.80;12.00;9.00
69349;PMS5003;64554;43.452;4.934;2023-04-06T07:52:43;98.00;86.20;50.40
69349;PMS5003;64554;43.452;4.934;2023-04-06T07:55:09;57.25;44.25;26.50
69349;PMS5003;64554;43.452;4.934;2023-04-06T07:57:36;160.50;128.50;61.75
69349;PMS5003;64554;43.452;4.934;2023-04-06T08:00:03;109.00;105.50;66.50
69349;PMS5003;64554;43.452;4.934;2023-04-06T08:02:33;48.25;39.75;24.75
69349;PMS5003;64554;43.452;4.934;2023-04-06T08:05:00;57.25;46.25;29.50
69349;PMS5003;64554;43.452;4.934;2023-04-06T08:07:27;61.75;50.50;32.25
69349;PMS5003;64554;43.452;4.934;2023-04-06T08:09:53;46.20;36.60;21.00
69349;PMS5003;64554;43.452;4.934;2023-04-06T08:12:20;50.40;41.60;24.00
69349;PMS5003;64554;43.452;4.934;2023-04-06T08:14:47;15.00;14.00;10.80
69349;PMS5003;64554;43.452;4.934;2023-04-06T08:17:14;72.67;58.33;32.33
69349;PMS5003;64554;43.452;4.934;2023-04-06T08:19:42;14.00;12.60;7.40
69349;PMS5003;64554;43.452;4.934;2023-04-06T08:22:09;9.80;9.60;7.80
69349;PMS5003;64554;43.452;4.934;2023-04-06T08:24:35;8.00;8.00;6.60
69349;PMS5003;64554;43.452;4.934;2023-04-06T08:27:02;10.00;10.00;7.00
69349;PMS5003;64554;43.452;4.934;2023-04-06T08:29:29;8.20;8.20;7.00
69349;PMS5003;64554;43.452;4.934;2023-04-06T08:31:56;8.00;8.00;6.60
69349;PMS5003;64554;43.452;4.934;2023-04-06T08:34:22;7.60;7.60;5.60
69349;PMS5003;64554;43.452;4.934;2023-04-06T08:36:49;7.00;7.00;5.75
69349;PMS5003;64554;43.452;4.934;2023-04-06T08:39:16;10.00;10.00;7.00
69349;PMS5003;64554;43.452;4.934;2023-04-06T08:41:43;9.20;7.00;6.00
69349;PMS5003;64554;43.452;4.934;2023-04-06T08:44:10;14.00;12.00;8.20
69349;PMS5003;64554;43.452;4.934;2023-04-06T08:46:37;9.00;9.00;7.50
69349;PMS5003;64554;43.452;4.934;2023-04-06T08:49:04;10.60;10.00;5.40
69349;PMS5003;64554;43.452;4.934;2023-04-06T08:51:33;12.00;10.25;7.25
69349;PMS5003;64554;43.452;4.934;2023-04-06T08:54:01;9.60;9.60;7.60
69349;PMS5003;64554;43.452;4.934;2023-04-06T08:56:27;12.20;11.00;8.00
69349;PMS5003;64554;43.452;4.934;2023-04-06T08:58:54;15.60;13.00;9.20
69349;PMS5003;64554;43.452;4.934;2023-04-06T09:01:25;11.80;10.60;6.80
69349;PMS5003;64554;43.452;4.934;2023-04-06T09:03:56;16.00;11.60;9.00
69349;PMS5003;64554;43.452;4.934;2023-04-06T09:06:24;15.20;13.80;10.40
69349;PMS5003;64554;43.452;4.934;2023-04-06T09:08:52;14.00;14.00;9.00
69349;PMS5003;64554;43.452;4.934;2023-04-06T09:11:19;12.75;11.75;9.75
69349;PMS5003;64554;43.452;4.934;2023-04-06T09:13:50;15.00;13.50;9.50
69349;PMS5003;64554;43.452;4.934;2023-04-06T09:16:17;12.60;11.60;8.60
69349;PMS5003;64554;43.452;4.934;2023-04-06T09:18:44;14.50;13.25;9.25
69349;PMS5003;64554;43.452;4.934;2023-04-06T09:21:11;12.00;11.00;8.00
69349;PMS5003;64554;43.452;4.934;2023-04-06T09:23:38;13.60;12.00;8.00
69349;PMS5003;64554;43.452;4.934;2023-04-06T09:28:56;8.40;8.00;6.00
69349;PMS5003;64554;43.452;4.934;2023-04-06T09:31:27;14.20;12.40;7.60
69349;PMS5003;64554;43.452;4.934;2023-04-06T09:33:54;17.00;16.00;8.00
69349;PMS5003;64554;43.452;4.934;2023-04-06T09:36:31;11.80;11.20;7.20
69349;PMS5003;64554;43.452;4.934;2023-04-06T09:38:59;11.40;10.00;6.40
69349;PMS5003;64554;43.452;4.934;2023-04-06T09:41:27;11.40;10.00;7.00
69349;PMS5003;64554;43.452;4.934;2023-04-06T09:44:04;10.20;10.00;7.20
69349;PMS5003;64554;43.452;4.934;2023-04-06T09:46:32;13.50;10.50;7.50
69349;PMS5003;64554;43.452;4.934;2023-04-06T09:49:19;13.00;13.00;7.60
69349;PMS5003;64554;43.452;4.934;2023-04-06T09:51:47;13.20;11.20;7.60
69349;PMS5003;64554;43.452;4.934;2023-04-06T09:54:15;9.60;8.60;6.40
69349;PMS5003;64554;43.452;4.934;2023-04-06T09:56:51;11.00;10.00;7.40
69349;PMS5003;64554;43.452;4.934;2023-04-06T10:01:53;12.00;12.00;8.00
69349;PMS5003;64554;43.452;4.934;2023-04-06T10:06:58;9.00;9.00;7.00
69349;PMS5003;64554;43.452;4.934;2023-04-06T10:09:25;10.60;10.60;8.00
69349;PMS5003;64554;43.452;4.934;2023-04-06T10:11:54;10.00;10.00;7.50
69349;PMS5003;64554;43.452;4.934;2023-04-06T10:14:21;13.00;10.40;7.00
69349;PMS5003;64554;43.452;4.934;2023-04-06T10:16:48;11.00;11.00;8.00
69349;PMS5003;64554;43.452;4.934;2023-04-06T10:19:18;10.00;10.00;7.00
69349;PMS5003;64554;43.452;4.934;2023-04-06T10:21:48;14.75;13.75;10.00
69349;PMS5003;64554;43.452;4.934;2023-04-06T10:24:17;10.60;10.60;7.60
69349;PMS5003;64554;43.452;4.934;2023-04-06T10:26:54;11.75;11.00;8.75
69349;PMS5003;64554;43.452;4.934;2023-04-06T10:29:23;9.75;9.75;6.75
69349;PMS5003;64554;43.452;4.934;2023-04-06T10:31:50;9.40;9.40;6.40
69349;PMS5003;64554;43.452;4.934;2023-04-06T10:34:17;13.00;13.00;9.00
69349;PMS5003;64554;43.452;4.934;2023-04-06T10:36:46;10.25;10.25;7.00
69349;PMS5003;64554;43.452;4.934;2023-04-06T10:39:15;12.20;9.80;7.20
69349;PMS5003;64554;43.452;4.934;2023-04-06T10:41:50;10.00;10.00;7.00
69349;PMS5003;64554;43.452;4.934;2023-04-06T10:44:17;10.40;9.00;7.00
69349;PMS5003;64554;43.452;4.934;2023-04-06T10:46:53;12.00;12.00;9.00
69349;PMS5003;64554;43.452;4.934;2023-04-06T10:49:21;9.00;9.00;7.00
69349;PMS5003;64554;43.452;4.934;2023-04-06T10:51:52;12.20;10.20;7.80
69349;PMS5003;64554;43.452;4.934;2023-04-06T10:54:20;11.20;10.00;8.00
69349;PMS5003;64554;43.452;4.934;2023-04-06T10:56:48;15.00;11.50;8.00
69349;PMS5003;64554;43.452;4.934;2023-04-06T10:59:18;9.00;9.00;7.40
69349;PMS5003;64554;43.452;4.934;2023-04-06T11:01:45;10.00;10.00;8.00
69349;PMS5003;64554;43.452;4.934;2023-04-06T11:04:15;12.50;11.75;8.00
69349;PMS5003;64554;43.452;4.934;2023-04-06T11:06:45;13.80;12.00;7.20
69349;PMS5003;64554;43.452;4.934;2023-04-06T11:09:24;12.00;12.00;8.75
69349;PMS5003;64554;43.452;4.934;2023-04-06T11:11:51;14.50;13.00;9.50
69349;PMS5003;64554;43.452;4.934;2023-04-06T11:14:18;17.00;16.00;9.00
69349;PMS5003;64554;43.452;4.934;2023-04-06T11:16:46;16.67;16.67;8.00
69349;PMS5003;64554;43.452;4.934;2023-04-06T11:19:13;13.50;10.50;7.50
69349;PMS5003;64554;43.452;4.934;2023-04-06T11:21:41;10.20;10.20;8.00
69349;PMS5003;64554;43.452;4.934;2023-04-06T11:26:37;13.00;12.00;9.00
69349;PMS5003;64554;43.452;4.934;2023-04-06T11:29:03;12.40;12.40;7.40
69349;PMS5003;64554;43.452;4.934;2023-04-06T11:31:30;10.00;9.00;7.00
69349;PMS5003;64554;43.452;4.934;2023-04-06T11:33:57;8.00;8.00;5.80
69349;PMS5003;64554;43.452;4.934;2023-04-06T11:36:26;11.25;9.00;6.00
69349;PMS5003;64554;43.452;4.934;2023-04-06T11:38:53;10.60;9.00;6.00
69349;PMS5003;64554;43.452;4.934;2023-04-06T11:41:22;9.40;9.40;7.00
69349;PMS5003;64554;43.452;4.934;2023-04-06T11:43:49;9.00;9.00;6.75
69349;PMS5003;64554;43.452;4.934;2023-04-06T11:46:17;9.40;9.40;7.80
69349;PMS5003;64554;43.452;4.934;2023-04-06T11:48:45;9.40;9.40;5.60
69349;PMS5003;64554;43.452;4.934;2023-04-06T11:51:12;9.40;9.40;7.40
69349;PMS5003;64554;43.452;4.934;2023-04-06T11:53:50;13.00;12.75;8.75
69349;PMS5003;64554;43.452;4.934;2023-04-06T11:56:23;11.00;11.00;8.00
69349;PMS5003;64554;43.452;4.934;2023-04-06T11:58:51;15.00;13.00;9.00
69349;PMS5003;64554;43.452;4.934;2023-04-06T12:01:18;14.00;12.75;8.75
69349;PMS5003;64554;43.452;4.934;2023-04-06T12:03:44;19.40;15.40;10.40
69349;PMS5003;64554;43.452;4.934;2023-04-06T12:06:12;11.60;10.00;8.00
69349;PMS5003;64554;43.452;4.934;2023-04-06T12:08:38;12.00;11.00;8.00
69349;PMS5003;64554;43.452;4.934;2023-04-06T12:11:05;14.00;13.00;9.00
69349;PMS5003;64554;43.452;4.934;2023-04-06T12:13:32;10.00;10.00;8.00
69349;PMS5003;64554;43.452;4.934;2023-04-06T12:15:58;11.50;10.00;7.00
69349;PMS5003;64554;43.452;4.934;2023-04-06T12:18:25;8.20;6.60;5.20
69349;PMS5003;64554;43.452;4.934;2023-04-06T12:20:51;7.60;7.60;6.60
69349;PMS5003;64554;43.452;4.934;2023-04-06T12:23:18;10.33;10.33;7.33
69349;PMS5003;64554;43.452;4.934;2023-04-06T12:25:45;13.33;11.00;8.00
69349;PMS5003;64554;43.452;4.934;2023-04-06T12:28:12;16.00;13.00;7.00
69349;PMS5003;64554;43.452;4.934;2023-04-06T12:36:38;10.00;10.00;7.00
69349;PMS5003;64554;43.452;4.934;2023-04-06T12:39:05;13.00;10.20;7.20
69349;PMS5003;64554;43.452;4.934;2023-04-06T12:41:32;10.20;10.20;6.80
69349;PMS5003;64554;43.452;4.934;2023-04-06T12:43:58;8.50;8.50;6.50
69349;PMS5003;64554;43.452;4.934;2023-04-06T12:46:29;12.60;10.00;8.00
69349;PMS5003;64554;43.452;4.934;2023-04-06T12:51:54;8.50;7.50;5.50
69349;PMS5003;64554;43.452;4.934;2023-04-06T12:54:21;11.60;8.60;5.60
69349;PMS5003;64554;43.452;4.934;2023-04-06T12:56:48;9.00;9.00;6.00
69349;PMS5003;64554;43.452;4.934;2023-04-06T12:59:14;8.00;8.00;6.00
69349;PMS5003;64554;43.452;4.934;2023-04-06T13:01:42;8.40;8.40;6.40
69349;PMS5003;64554;43.452;4.934;2023-04-06T13:04:10;11.60;8.60;5.60
69349;PMS5003;64554;43.452;4.934;2023-04-06T13:06:37;9.50;9.50;6.50
69349;PMS5003;64554;43.452;4.934;2023-04-06T13:09:03;12.40;10.40;7.40
69349;PMS5003;64554;43.452;4.934;2023-04-06T13:11:31;10.75;9.50;7.00
69349;PMS5003;64554;43.452;4.934;2023-04-06T13:13:58;11.40;11.40;9.00
69349;PMS5003;64554;43.452;4.934;2023-04-06T13:16:25;11.50;11.50;7.50
69349;PMS5003;64554;43.452;4.934;2023-04-06T13:18:51;14.00;12.00;9.00
69349;PMS5003;64554;43.452;4.934;2023-04-06T13:21:18;13.00;13.00;9.00
69349;PMS5003;64554;43.452;4.934;2023-04-06T13:23:47;10.40;10.40;7.40
69349;PMS5003;64554;43.452;4.934;2023-04-06T13:26:16;17.00;14.60;10.00
69349;PMS5003;64554;43.452;4.934;2023-04-06T13:28:43;21.40;18.40;12.00
69349;PMS5003;64554;43.452;4.934;2023-04-06T13:31:10;15.00;13.00;10.00
69349;PMS5003;64554;43.452;4.934;2023-04-06T13:33:36;13.75;11.75;7.75
69349;PMS5003;64554;43.452;4.934;2023-04-06T13:36:03;14.20;12.20;8.80
69349;PMS5003;64554;43.452;4.934;2023-04-06T13:38:30;10.00;10.00;7.00
69349;PMS5003;64554;43.452;4.934;2023-04-06T13:40:56;12.25;11.25;8.00
69349;PMS5003;64554;43.452;4.934;2023-04-06T13:43:23;14.40;11.40;7.00
69349;PMS5003;64554;43.452;4.934;2023-04-06T13:45:53;16.25;14.25;8.25
69349;PMS5003;64554;43.452;4.934;2023-04-06T13:48:25;14.80;14.80;6.80
69349;PMS5003;64554;43.452;4.934;2023-04-06T13:50:52;13.50;10.75;7.00
69349;PMS5003;64554;43.452;4.934;2023-04-06T13:53:18;14.00;14.00;10.20
69349;PMS5003;64554;43.452;4.934;2023-04-06T13:55:51;12.00;11.00;7.50
69349;PMS5003;64554;43.452;4.934;2023-04-06T13:58:18;12.00;10.60;8.00
69349;PMS5003;64554;43.452;4.934;2023-04-06T14:03:35;12.25;11.00;8.00
69349;PMS5003;64554;43.452;4.934;2023-04-06T14:06:09;11.00;10.00;7.00
69349;PMS5003;64554;43.452;4.934;2023-04-06T14:08:52;11.00;9.40;6.00
69349;PMS5003;64554;43.452;4.934;2023-04-06T14:11:19;12.00;10.40;7.40
69349;PMS5003;64554;43.452;4.934;2023-04-06T14:13:45;11.00;8.00;5.40
69349;PMS5003;64554;43.452;4.934;2023-04-06T14:16:12;8.80;8.80;6.00
69349;PMS5003;64554;43.452;4.934;2023-04-06T14:18:39;7.60;7.60;6.00
69349;PMS5003;64554;43.452;4.934;2023-04-06T14:21:06;13.00;13.00;9.00
69349;PMS5003;64554;43.452;4.934;2023-04-06T14:23:32;8.00;8.00;5.00